sensor_id;sensor_type;location;lat;lon;timestamp;temperature;humidity
7658;DHT22;8462;53.156;8.220;2022-11-13T00:00:13;8.90;90.50
7658;DHT22;8462;53.156;8.220;2022-11-13T00:02:59;8.90;90.30
7658;DHT22;8462;53.156;8.220;2022-11-13T00:05:44;8.90;90.30
7658;DHT22;8462;53.156;8.220;2022-11-13T00:08:29;8.90;90.30
7658;DHT22;8462;53.156;8.220;2022-11-13T00:11:17;8.90;90.20
7658;DHT22;8462;53.156;8.220;2022-11-13T00:14:06;8.90;90.20
7658;DHT22;8462;53.156;8.220;2022-11-13T00:16:51;8.80;90.20
7658;DHT22;8462;53.156;8.220;2022-11-13T00:19:37;8.80;90.20
7658;DHT22;8462;53.156;8.220;2022-11-13T00:22:23;8.70;90.20
7658;DHT22;8462;53.156;8.220;2022-11-13T00:25:09;8.70;90.40
7658;DHT22;8462;53.156;8.220;2022-11-13T00:27:54;8.60;90.50
7658;DHT22;8462;53.156;8.220;2022-11-13T00:30:41;8.50;90.60
7658;DHT22;8462;53.156;8.220;2022-11-13T00:33:27;8.50;90.80
7658;DHT22;8462;53.156;8.220;2022-11-13T00:36:14;8.40;90.90
7658;DHT22;8462;53.156;8.220;2022-11-13T00:39:00;8.40;91.00
7658;DHT22;8462;53.156;8.220;2022-11-13T00:41:45;8.40;91.00
7658;DHT22;8462;53.156;8.220;2022-11-13T00:44:31;8.40;91.10
7658;DHT22;8462;53.156;8.220;2022-11-13T00:47:19;8.40;91.20
7658;DHT22;8462;53.156;8.220;2022-11-13T00:50:05;8.50;91.20
7658;DHT22;8462;53.156;8.220;2022-11-13T00:52:50;8.50;91.20
7658;DHT22;8462;53.156;8.220;2022-11-13T00:55:36;8.50;91.00
7658;DHT22;8462;53.156;8.220;2022-11-13T00:58:21;8.50;90.90
7658;DHT22;8462;53.156;8.220;2022-11-13T01:01:09;8.50;90.90
7658;DHT22;8462;53.156;8.220;2022-11-13T01:03:57;8.40;91.00
7658;DHT22;8462;53.156;8.220;2022-11-13T01:06:43;8.40;91.10
7658;DHT22;8462;53.156;8.220;2022-11-13T01:09:29;8.40;91.50
7658;DHT22;8462;53.156;8.220;2022-11-13T01:12:15;8.40;91.00
7658;DHT22;8462;53.156;8.220;2022-11-13T01:15:01;8.30;91.00
7658;DHT22;8462;53.156;8.220;2022-11-13T01:17:46;8.30;91.10
7658;DHT22;8462;53.156;8.220;2022-11-13T01:20:33;8.30;91.60
7658;DHT22;8462;53.156;8.220;2022-11-13T01:23:19;8.30;91.30
7658;DHT22;8462;53.156;8.220;2022-11-13T01:26:06;8.20;91.30
7658;DHT22;8462;53.156;8.220;2022-11-13T01:28:54;8.30;91.40
7658;DHT22;8462;53.156;8.220;2022-11-13T01:31:40;8.30;91.50
7658;DHT22;8462;53.156;8.220;2022-11-13T01:34:25;8.30;91.50
7658;DHT22;8462;53.156;8.220;2022-11-13T01:37:12;8.30;91.50
7658;DHT22;8462;53.156;8.220;2022-11-13T01:39:58;8.40;91.40
7658;DHT22;8462;53.156;8.220;2022-11-13T01:42:43;8.40;91.30
7658;DHT22;8462;53.156;8.220;2022-11-13T01:45:57;8.40;91.20
7658;DHT22;8462;53.156;8.220;2022-11-13T01:48:49;8.50;91.20
7658;DHT22;8462;53.156;8.220;2022-11-13T01:51:38;8.50;91.10
7658;DHT22;8462;53.156;8.220;2022-11-13T01:54:28;8.50;91.10
7658;DHT22;8462;53.156;8.220;2022-11-13T01:57:15;8.50;91.00
7658;DHT22;8462;53.156;8.220;2022-11-13T02:00:07;8.50;90.90
7658;DHT22;8462;53.156;8.220;2022-11-13T02:02:53;8.40;91.00
7658;DHT22;8462;53.156;8.220;2022-11-13T02:05:38;8.40;91.00
7658;DHT22;8462;53.156;8.220;2022-11-13T02:08:24;8.40;91.10
7658;DHT22;8462;53.156;8.220;2022-11-13T02:11:11;8.40;91.20
7658;DHT22;8462;53.156;8.220;2022-11-13T02:13:57;8.40;91.20
7658;DHT22;8462;53.156;8.220;2022-11-13T02:16:46;8.40;91.20
7658;DHT22;8462;53.156;8.220;2022-11-13T02:19:36;8.40;91.30
7658;DHT22;8462;53.156;8.220;2022-11-13T02:22:29;8.30;91.30
7658;DHT22;8462;53.156;8.220;2022-11-13T02:25:19;8.30;91.30
7658;DHT22;8462;53.156;8.220;2022-11-13T02:28:05;8.30;91.40
7658;DHT22;8462;53.156;8.220;2022-11-13T02:30:51;8.30;91.40
7658;DHT22;8462;53.156;8.220;2022-11-13T02:33:36;8.30;91.40
7658;DHT22;8462;53.156;8.220;2022-11-13T02:36:23;8.30;91.40
7658;DHT22;8462;53.156;8.220;2022-11-13T02:39:11;8.20;91.50
7658;DHT22;8462;53.156;8.220;2022-11-13T02:41:58;8.20;91.60
7658;DHT22;8462;53.156;8.220;2022-11-13T02:44:45;8.10;91.70
7658;DHT22;8462;53.156;8.220;2022-11-13T02:47:30;8.10;91.80
7658;DHT22;8462;53.156;8.220;2022-11-13T02:50:16;8.10;91.80
7658;DHT22;8462;53.156;8.220;2022-11-13T02:53:03;8.10;91.90
7658;DHT22;8462;53.156;8.220;2022-11-13T02:55:48;8.10;91.90
7658;DHT22;8462;53.156;8.220;2022-11-13T02:58:35;8.00;91.90
7658;DHT22;8462;53.156;8.220;2022-11-13T03:01:20;8.10;91.90
7658;DHT22;8462;53.156;8.220;2022-11-13T03:04:06;8.00;91.80
7658;DHT22;8462;53.156;8.220;2022-11-13T03:06:51;8.00;91.80
7658;DHT22;8462;53.156;8.220;2022-11-13T03:09:37;8.00;91.70
7658;DHT22;8462;53.156;8.220;2022-11-13T03:12:22;8.00;91.70
7658;DHT22;8462;53.156;8.220;2022-11-13T03:15:09;8.00;91.70
7658;DHT22;8462;53.156;8.220;2022-11-13T03:17:55;7.90;91.80
7658;DHT22;8462;53.156;8.220;2022-11-13T03:20:42;7.90;91.80
7658;DHT22;8462;53.156;8.220;2022-11-13T03:23:28;7.80;91.90
7658;DHT22;8462;53.156;8.220;2022-11-13T03:26:15;7.80;91.90
7658;DHT22;8462;53.156;8.220;2022-11-13T03:29:01;7.80;92.00
7658;DHT22;8462;53.156;8.220;2022-11-13T03:31:48;7.80;92.50
7658;DHT22;8462;53.156;8.220;2022-11-13T03:34:34;7.70;92.10
7658;DHT22;8462;53.156;8.220;2022-11-13T03:37:19;7.70;92.10
7658;DHT22;8462;53.156;8.220;2022-11-13T03:40:06;7.70;92.10
7658;DHT22;8462;53.156;8.220;2022-11-13T03:42:52;7.70;92.10
7658;DHT22;8462;53.156;8.220;2022-11-13T03:45:37;7.70;92.10
7658;DHT22;8462;53.156;8.220;2022-11-13T03:48:24;7.60;92.00
7658;DHT22;8462;53.156;8.220;2022-11-13T03:51:10;7.60;92.00
7658;DHT22;8462;53.156;8.220;2022-11-13T03:53:55;7.60;92.10
7658;DHT22;8462;53.156;8.220;2022-11-13T03:56:41;7.50;92.10
7658;DHT22;8462;53.156;8.220;2022-11-13T03:59:26;7.50;92.10
7658;DHT22;8462;53.156;8.220;2022-11-13T04:02:11;7.50;92.20
7658;DHT22;8462;53.156;8.220;2022-11-13T04:04:58;7.50;92.10
7658;DHT22;8462;53.156;8.220;2022-11-13T04:07:44;7.50;92.20
7658;DHT22;8462;53.156;8.220;2022-11-13T04:10:30;7.50;92.20
7658;DHT22;8462;53.156;8.220;2022-11-13T04:13:15;7.50;92.30
7658;DHT22;8462;53.156;8.220;2022-11-13T04:16:02;7.50;92.20
7658;DHT22;8462;53.156;8.220;2022-11-13T04:18:47;7.50;92.20
7658;DHT22;8462;53.156;8.220;2022-11-13T04:21:34;7.50;92.10
7658;DHT22;8462;53.156;8.220;2022-11-13T04:24:20;7.50;92.50
7658;DHT22;8462;53.156;8.220;2022-11-13T04:27:06;7.50;92.10
7658;DHT22;8462;53.156;8.220;2022-11-13T04:29:51;7.50;92.10
7658;DHT22;8462;53.156;8.220;2022-11-13T04:32:37;7.50;92.00
7658;DHT22;8462;53.156;8.220;2022-11-13T04:35:22;7.50;91.90
7658;DHT22;8462;53.156;8.220;2022-11-13T04:38:09;7.40;91.90
7658;DHT22;8462;53.156;8.220;2022-11-13T04:40:54;7.40;91.90
7658;DHT22;8462;53.156;8.220;2022-11-13T04:43:54;7.30;91.90
7658;DHT22;8462;53.156;8.220;2022-11-13T04:46:39;7.30;92.00
7658;DHT22;8462;53.156;8.220;2022-11-13T04:49:25;7.30;92.00
7658;DHT22;8462;53.156;8.220;2022-11-13T04:52:11;7.20;92.10
7658;DHT22;8462;53.156;8.220;2022-11-13T04:54:58;7.20;92.10
7658;DHT22;8462;53.156;8.220;2022-11-13T04:57:44;7.20;92.10
7658;DHT22;8462;53.156;8.220;2022-11-13T05:00:30;7.20;92.20
7658;DHT22;8462;53.156;8.220;2022-11-13T05:03:15;7.20;92.20
7658;DHT22;8462;53.156;8.220;2022-11-13T05:06:02;7.20;92.10
7658;DHT22;8462;53.156;8.220;2022-11-13T05:08:48;7.10;92.10
7658;DHT22;8462;53.156;8.220;2022-11-13T05:11:35;7.10;92.20
7658;DHT22;8462;53.156;8.220;2022-11-13T05:14:21;7.10;92.20
7658;DHT22;8462;53.156;8.220;2022-11-13T05:17:09;7.10;92.30
7658;DHT22;8462;53.156;8.220;2022-11-13T05:19:54;7.20;92.40
7658;DHT22;8462;53.156;8.220;2022-11-13T05:22:40;7.20;92.30
7658;DHT22;8462;53.156;8.220;2022-11-13T05:25:26;7.20;92.30
7658;DHT22;8462;53.156;8.220;2022-11-13T05:28:12;7.20;92.20
7658;DHT22;8462;53.156;8.220;2022-11-13T05:31:06;7.20;92.10
7658;DHT22;8462;53.156;8.220;2022-11-13T05:33:52;7.20;92.10
7658;DHT22;8462;53.156;8.220;2022-11-13T05:36:38;7.10;92.10
7658;DHT22;8462;53.156;8.220;2022-11-13T05:39:24;7.10;92.10
7658;DHT22;8462;53.156;8.220;2022-11-13T05:42:10;7.10;92.10
7658;DHT22;8462;53.156;8.220;2022-11-13T05:44:56;7.10;92.10
7658;DHT22;8462;53.156;8.220;2022-11-13T05:47:43;7.10;92.20
7658;DHT22;8462;53.156;8.220;2022-11-13T05:50:34;7.10;92.20
7658;DHT22;8462;53.156;8.220;2022-11-13T05:53:20;7.10;92.20
7658;DHT22;8462;53.156;8.220;2022-11-13T05:56:08;7.00;92.10
7658;DHT22;8462;53.156;8.220;2022-11-13T05:58:54;7.00;92.20
7658;DHT22;8462;53.156;8.220;2022-11-13T06:01:41;7.00;92.60
7658;DHT22;8462;53.156;8.220;2022-11-13T06:04:27;7.00;92.20
7658;DHT22;8462;53.156;8.220;2022-11-13T06:07:14;7.00;92.10
7658;DHT22;8462;53.156;8.220;2022-11-13T06:09:59;7.10;92.10
7658;DHT22;8462;53.156;8.220;2022-11-13T06:12:44;7.00;92.00
7658;DHT22;8462;53.156;8.220;2022-11-13T06:15:30;7.10;92.00
7658;DHT22;8462;53.156;8.220;2022-11-13T06:18:21;7.00;92.00
7658;DHT22;8462;53.156;8.220;2022-11-13T06:21:09;7.00;92.10
7658;DHT22;8462;53.156;8.220;2022-11-13T06:23:55;7.00;92.00
7658;DHT22;8462;53.156;8.220;2022-11-13T06:26:41;7.00;92.40
7658;DHT22;8462;53.156;8.220;2022-11-13T06:29:26;7.00;91.90
7658;DHT22;8462;53.156;8.220;2022-11-13T06:32:15;6.90;91.90
7658;DHT22;8462;53.156;8.220;2022-11-13T06:35:04;6.90;92.00
7658;DHT22;8462;53.156;8.220;2022-11-13T06:37:50;6.90;92.00
7658;DHT22;8462;53.156;8.220;2022-11-13T06:40:38;6.90;92.00
7658;DHT22;8462;53.156;8.220;2022-11-13T06:43:24;6.90;92.10
7658;DHT22;8462;53.156;8.220;2022-11-13T06:46:12;6.90;92.10
7658;DHT22;8462;53.156;8.220;2022-11-13T06:48:58;6.80;92.20
7658;DHT22;8462;53.156;8.220;2022-11-13T06:51:45;6.80;92.20
7658;DHT22;8462;53.156;8.220;2022-11-13T06:54:30;6.80;92.30
7658;DHT22;8462;53.156;8.220;2022-11-13T06:57:16;6.70;92.30
7658;DHT22;8462;53.156;8.220;2022-11-13T07:00:03;6.80;92.40
7658;DHT22;8462;53.156;8.220;2022-11-13T07:02:49;6.70;92.40
7658;DHT22;8462;53.156;8.220;2022-11-13T07:05:35;6.70;92.40
7658;DHT22;8462;53.156;8.220;2022-11-13T07:08:23;6.70;92.50
7658;DHT22;8462;53.156;8.220;2022-11-13T07:11:10;6.70;92.50
7658;DHT22;8462;53.156;8.220;2022-11-13T07:13:55;6.70;92.50
7658;DHT22;8462;53.156;8.220;2022-11-13T07:16:41;6.80;92.60
7658;DHT22;8462;53.156;8.220;2022-11-13T07:19:26;6.80;92.60
7658;DHT22;8462;53.156;8.220;2022-11-13T07:22:12;6.80;92.60
7658;DHT22;8462;53.156;8.220;2022-11-13T07:25:01;6.80;92.60
7658;DHT22;8462;53.156;8.220;2022-11-13T07:27:46;6.90;92.60
7658;DHT22;8462;53.156;8.220;2022-11-13T07:30:32;7.00;92.50
7658;DHT22;8462;53.156;8.220;2022-11-13T07:33:17;7.10;92.40
7658;DHT22;8462;53.156;8.220;2022-11-13T07:36:07;7.20;92.40
7658;DHT22;8462;53.156;8.220;2022-11-13T07:38:52;7.20;92.20
7658;DHT22;8462;53.156;8.220;2022-11-13T07:41:39;7.30;92.20
7658;DHT22;8462;53.156;8.220;2022-11-13T07:44:25;7.40;92.10
7658;DHT22;8462;53.156;8.220;2022-11-13T07:47:10;7.50;91.90
7658;DHT22;8462;53.156;8.220;2022-11-13T07:49:55;7.50;91.70
7658;DHT22;8462;53.156;8.220;2022-11-13T07:52:43;7.50;91.60
7658;DHT22;8462;53.156;8.220;2022-11-13T07:55:29;7.60;91.70
7658;DHT22;8462;53.156;8.220;2022-11-13T07:58:16;7.70;91.70
7658;DHT22;8462;53.156;8.220;2022-11-13T08:01:02;7.70;91.60
7658;DHT22;8462;53.156;8.220;2022-11-13T08:03:48;7.80;91.60
7658;DHT22;8462;53.156;8.220;2022-11-13T08:06:35;7.90;91.50
7658;DHT22;8462;53.156;8.220;2022-11-13T08:09:21;8.00;91.40
7658;DHT22;8462;53.156;8.220;2022-11-13T08:12:07;8.00;91.30
7658;DHT22;8462;53.156;8.220;2022-11-13T08:14:55;8.10;91.30
7658;DHT22;8462;53.156;8.220;2022-11-13T08:17:41;8.20;91.30
7658;DHT22;8462;53.156;8.220;2022-11-13T08:20:28;8.30;91.20
7658;DHT22;8462;53.156;8.220;2022-11-13T08:23:13;8.50;90.90
7658;DHT22;8462;53.156;8.220;2022-11-13T08:26:03;8.70;90.60
7658;DHT22;8462;53.156;8.220;2022-11-13T08:28:48;8.80;90.50
7658;DHT22;8462;53.156;8.220;2022-11-13T08:31:35;9.00;90.20
7658;DHT22;8462;53.156;8.220;2022-11-13T08:34:21;9.20;89.50
7658;DHT22;8462;53.156;8.220;2022-11-13T08:37:07;9.30;89.70
7658;DHT22;8462;53.156;8.220;2022-11-13T08:39:53;9.50;88.80
7658;DHT22;8462;53.156;8.220;2022-11-13T08:42:38;9.60;87.20
7658;DHT22;8462;53.156;8.220;2022-11-13T08:45:24;9.80;87.10
7658;DHT22;8462;53.156;8.220;2022-11-13T08:48:10;9.80;86.70
7658;DHT22;8462;53.156;8.220;2022-11-13T08:50:56;9.90;86.00
7658;DHT22;8462;53.156;8.220;2022-11-13T08:53:43;9.90;86.20
7658;DHT22;8462;53.156;8.220;2022-11-13T08:56:29;10.00;85.20
7658;DHT22;8462;53.156;8.220;2022-11-13T08:59:14;10.10;85.00
7658;DHT22;8462;53.156;8.220;2022-11-13T09:02:00;10.10;84.70
7658;DHT22;8462;53.156;8.220;2022-11-13T09:04:47;10.20;84.80
7658;DHT22;8462;53.156;8.220;2022-11-13T09:07:33;10.30;84.60
7658;DHT22;8462;53.156;8.220;2022-11-13T09:10:19;10.40;84.30
7658;DHT22;8462;53.156;8.220;2022-11-13T09:13:05;10.40;84.50
7658;DHT22;8462;53.156;8.220;2022-11-13T09:15:52;10.50;84.00
7658;DHT22;8462;53.156;8.220;2022-11-13T09:18:37;10.60;83.70
7658;DHT22;8462;53.156;8.220;2022-11-13T09:21:24;10.60;83.60
7658;DHT22;8462;53.156;8.220;2022-11-13T09:24:10;10.70;83.50
7658;DHT22;8462;53.156;8.220;2022-11-13T09:26:55;10.60;84.90
7658;DHT22;8462;53.156;8.220;2022-11-13T09:29:41;10.70;84.40
7658;DHT22;8462;53.156;8.220;2022-11-13T09:32:28;10.80;83.90
7658;DHT22;8462;53.156;8.220;2022-11-13T09:35:13;10.80;84.30
7658;DHT22;8462;53.156;8.220;2022-11-13T09:38:02;10.90;84.10
7658;DHT22;8462;53.156;8.220;2022-11-13T09:40:53;11.00;83.70
7658;DHT22;8462;53.156;8.220;2022-11-13T09:44:01;11.10;83.30
7658;DHT22;8462;53.156;8.220;2022-11-13T09:47:19;11.10;83.20
7658;DHT22;8462;53.156;8.220;2022-11-13T09:50:26;11.20;82.90
7658;DHT22;8462;53.156;8.220;2022-11-13T09:53:35;11.20;82.60
7658;DHT22;8462;53.156;8.220;2022-11-13T09:56:44;11.20;83.20
7658;DHT22;8462;53.156;8.220;2022-11-13T09:59:53;11.20;83.10
7658;DHT22;8462;53.156;8.220;2022-11-13T10:03:15;11.30;83.40
7658;DHT22;8462;53.156;8.220;2022-11-13T10:06:28;11.40;82.90
7658;DHT22;8462;53.156;8.220;2022-11-13T10:09:48;11.50;83.10
7658;DHT22;8462;53.156;8.220;2022-11-13T10:12:57;11.60;83.60
7658;DHT22;8462;53.156;8.220;2022-11-13T10:16:10;11.70;82.30
7658;DHT22;8462;53.156;8.220;2022-11-13T10:19:20;11.70;81.30
7658;DHT22;8462;53.156;8.220;2022-11-13T10:22:33;11.70;81.90
7658;DHT22;8462;53.156;8.220;2022-11-13T10:25:40;11.70;81.90
7658;DHT22;8462;53.156;8.220;2022-11-13T10:28:45;11.90;82.30
7658;DHT22;8462;53.156;8.220;2022-11-13T10:31:51;12.00;81.80
7658;DHT22;8462;53.156;8.220;2022-11-13T10:35:18;12.20;81.70
7658;DHT22;8462;53.156;8.220;2022-11-13T10:38:32;12.30;80.30
7658;DHT22;8462;53.156;8.220;2022-11-13T10:41:47;12.40;80.00
7658;DHT22;8462;53.156;8.220;2022-11-13T10:44:54;12.30;79.90
7658;DHT22;8462;53.156;8.220;2022-11-13T10:47:58;12.30;80.00
7658;DHT22;8462;53.156;8.220;2022-11-13T10:51:05;12.40;79.90
7658;DHT22;8462;53.156;8.220;2022-11-13T10:54:20;12.50;80.40
7658;DHT22;8462;53.156;8.220;2022-11-13T10:57:30;12.50;79.40
7658;DHT22;8462;53.156;8.220;2022-11-13T11:00:37;12.50;79.80
7658;DHT22;8462;53.156;8.220;2022-11-13T11:03:52;12.60;78.80
7658;DHT22;8462;53.156;8.220;2022-11-13T11:07:03;12.60;79.00
7658;DHT22;8462;53.156;8.220;2022-11-13T11:10:26;12.70;79.80
7658;DHT22;8462;53.156;8.220;2022-11-13T11:13:32;12.70;78.30
7658;DHT22;8462;53.156;8.220;2022-11-13T11:16:37;12.70;77.80
7658;DHT22;8462;53.156;8.220;2022-11-13T11:19:48;12.70;77.60
7658;DHT22;8462;53.156;8.220;2022-11-13T11:22:59;12.80;77.20
7658;DHT22;8462;53.156;8.220;2022-11-13T11:26:10;12.80;76.50
7658;DHT22;8462;53.156;8.220;2022-11-13T11:29:24;12.70;76.30
7658;DHT22;8462;53.156;8.220;2022-11-13T11:32:33;12.80;76.40
7658;DHT22;8462;53.156;8.220;2022-11-13T11:35:41;12.80;76.30
7658;DHT22;8462;53.156;8.220;2022-11-13T11:38:51;12.90;76.80
7658;DHT22;8462;53.156;8.220;2022-11-13T11:42:10;13.10;76.90
7658;DHT22;8462;53.156;8.220;2022-11-13T11:45:22;13.20;76.40
7658;DHT22;8462;53.156;8.220;2022-11-13T11:48:29;13.20;76.00
7658;DHT22;8462;53.156;8.220;2022-11-13T11:51:41;13.30;77.40
7658;DHT22;8462;53.156;8.220;2022-11-13T11:54:52;13.40;76.30
7658;DHT22;8462;53.156;8.220;2022-11-13T11:58:05;13.40;75.40
7658;DHT22;8462;53.156;8.220;2022-11-13T12:01:25;13.40;76.00
7658;DHT22;8462;53.156;8.220;2022-11-13T12:04:45;13.50;75.60
7658;DHT22;8462;53.156;8.220;2022-11-13T12:07:59;13.60;75.10
7658;DHT22;8462;53.156;8.220;2022-11-13T12:11:13;13.60;75.20
7658;DHT22;8462;53.156;8.220;2022-11-13T12:14:25;13.60;75.00
7658;DHT22;8462;53.156;8.220;2022-11-13T12:17:47;13.60;74.70
7658;DHT22;8462;53.156;8.220;2022-11-13T12:20:59;13.70;74.00
7658;DHT22;8462;53.156;8.220;2022-11-13T12:24:21;13.70;74.00
7658;DHT22;8462;53.156;8.220;2022-11-13T12:27:30;13.80;74.20
7658;DHT22;8462;53.156;8.220;2022-11-13T12:30:43;13.80;74.30
7658;DHT22;8462;53.156;8.220;2022-11-13T12:33:57;13.80;72.90
7658;DHT22;8462;53.156;8.220;2022-11-13T12:37:10;13.80;73.00
7658;DHT22;8462;53.156;8.220;2022-11-13T12:40:21;13.80;73.00
7658;DHT22;8462;53.156;8.220;2022-11-13T12:43:42;13.80;73.20
7658;DHT22;8462;53.156;8.220;2022-11-13T12:46:52;13.90;73.10
7658;DHT22;8462;53.156;8.220;2022-11-13T12:50:00;13.90;72.90
7658;DHT22;8462;53.156;8.220;2022-11-13T12:53:07;13.90;73.00
7658;DHT22;8462;53.156;8.220;2022-11-13T12:56:28;13.80;73.30
7658;DHT22;8462;53.156;8.220;2022-11-13T12:59:34;13.80;73.40
7658;DHT22;8462;53.156;8.220;2022-11-13T13:02:50;13.80;73.60
7658;DHT22;8462;53.156;8.220;2022-11-13T13:06:11;13.80;73.30
7658;DHT22;8462;53.156;8.220;2022-11-13T13:09:28;13.80;73.40
7658;DHT22;8462;53.156;8.220;2022-11-13T13:12:42;13.90;73.50
7658;DHT22;8462;53.156;8.220;2022-11-13T13:15:55;13.90;73.60
7658;DHT22;8462;53.156;8.220;2022-11-13T13:19:07;14.00;74.60
7658;DHT22;8462;53.156;8.220;2022-11-13T13:22:25;14.00;75.10
7658;DHT22;8462;53.156;8.220;2022-11-13T13:25:30;14.00;76.00
7658;DHT22;8462;53.156;8.220;2022-11-13T13:28:38;14.10;76.50
7658;DHT22;8462;53.156;8.220;2022-11-13T13:31:48;14.00;77.20
7658;DHT22;8462;53.156;8.220;2022-11-13T13:35:02;14.00;77.80
7658;DHT22;8462;53.156;8.220;2022-11-13T13:38:15;13.90;78.10
7658;DHT22;8462;53.156;8.220;2022-11-13T13:41:30;13.80;78.40
7658;DHT22;8462;53.156;8.220;2022-11-13T13:44:49;13.80;78.60
7658;DHT22;8462;53.156;8.220;2022-11-13T13:47:56;13.70;78.60
7658;DHT22;8462;53.156;8.220;2022-11-13T13:51:02;13.70;78.50
7658;DHT22;8462;53.156;8.220;2022-11-13T13:54:14;13.70;78.50
7658;DHT22;8462;53.156;8.220;2022-11-13T13:57:21;13.70;78.40
7658;DHT22;8462;53.156;8.220;2022-11-13T14:00:26;13.70;78.40
7658;DHT22;8462;53.156;8.220;2022-11-13T14:03:31;13.60;78.60
7658;DHT22;8462;53.156;8.220;2022-11-13T14:06:46;13.60;78.80
7658;DHT22;8462;53.156;8.220;2022-11-13T14:10:07;13.50;79.10
7658;DHT22;8462;53.156;8.220;2022-11-13T14:13:12;13.50;79.40
7658;DHT22;8462;53.156;8.220;2022-11-13T14:16:17;13.50;79.40
7658;DHT22;8462;53.156;8.220;2022-11-13T14:19:21;13.40;79.50
7658;DHT22;8462;53.156;8.220;2022-11-13T14:22:27;13.30;79.80
7658;DHT22;8462;53.156;8.220;2022-11-13T14:25:33;13.30;79.80
7658;DHT22;8462;53.156;8.220;2022-11-13T14:28:44;13.30;79.80
7658;DHT22;8462;53.156;8.220;2022-11-13T14:31:50;13.20;79.90
7658;DHT22;8462;53.156;8.220;2022-11-13T14:34:57;13.20;79.80
7658;DHT22;8462;53.156;8.220;2022-11-13T14:38:02;13.20;79.90
7658;DHT22;8462;53.156;8.220;2022-11-13T14:41:19;13.10;79.90
7658;DHT22;8462;53.156;8.220;2022-11-13T14:44:25;13.10;80.10
7658;DHT22;8462;53.156;8.220;2022-11-13T14:47:30;13.00;80.30
7658;DHT22;8462;53.156;8.220;2022-11-13T14:50:48;12.90;79.70
7658;DHT22;8462;53.156;8.220;2022-11-13T14:53:57;12.80;79.60
7658;DHT22;8462;53.156;8.220;2022-11-13T14:57:07;12.80;79.50
7658;DHT22;8462;53.156;8.220;2022-11-13T15:00:15;12.60;79.50
7658;DHT22;8462;53.156;8.220;2022-11-13T15:03:19;12.50;79.40
7658;DHT22;8462;53.156;8.220;2022-11-13T15:06:25;12.40;79.30
7658;DHT22;8462;53.156;8.220;2022-11-13T15:09:31;12.30;79.50
7658;DHT22;8462;53.156;8.220;2022-11-13T15:12:37;12.20;79.50
7658;DHT22;8462;53.156;8.220;2022-11-13T15:15:42;12.20;79.50
7658;DHT22;8462;53.156;8.220;2022-11-13T15:18:49;12.10;79.70
7658;DHT22;8462;53.156;8.220;2022-11-13T15:21:55;11.90;79.90
7658;DHT22;8462;53.156;8.220;2022-11-13T15:25:00;11.90;80.50
7658;DHT22;8462;53.156;8.220;2022-11-13T15:28:06;11.80;81.10
7658;DHT22;8462;53.156;8.220;2022-11-13T15:31:17;11.70;81.80
7658;DHT22;8462;53.156;8.220;2022-11-13T15:34:23;11.60;82.40
7658;DHT22;8462;53.156;8.220;2022-11-13T15:37:27;11.50;82.90
7658;DHT22;8462;53.156;8.220;2022-11-13T15:40:31;11.50;83.40
7658;DHT22;8462;53.156;8.220;2022-11-13T15:43:37;11.40;83.90
7658;DHT22;8462;53.156;8.220;2022-11-13T15:46:42;11.30;84.60
7658;DHT22;8462;53.156;8.220;2022-11-13T15:49:46;11.10;85.10
7658;DHT22;8462;53.156;8.220;2022-11-13T15:52:52;11.00;85.70
7658;DHT22;8462;53.156;8.220;2022-11-13T15:55:56;10.90;86.20
7658;DHT22;8462;53.156;8.220;2022-11-13T15:59:08;10.70;86.60
7658;DHT22;8462;53.156;8.220;2022-11-13T16:02:14;10.50;87.20
7658;DHT22;8462;53.156;8.220;2022-11-13T16:05:18;10.40;87.70
7658;DHT22;8462;53.156;8.220;2022-11-13T16:08:25;10.20;88.10
7658;DHT22;8462;53.156;8.220;2022-11-13T16:11:32;10.00;88.60
7658;DHT22;8462;53.156;8.220;2022-11-13T16:14:39;9.90;89.00
7658;DHT22;8462;53.156;8.220;2022-11-13T16:17:45;9.80;89.30
7658;DHT22;8462;53.156;8.220;2022-11-13T16:20:50;9.70;89.70
7658;DHT22;8462;53.156;8.220;2022-11-13T16:23:54;9.60;90.00
7658;DHT22;8462;53.156;8.220;2022-11-13T16:26:59;9.40;90.10
7658;DHT22;8462;53.156;8.220;2022-11-13T16:30:13;9.20;90.40
7658;DHT22;8462;53.156;8.220;2022-11-13T16:33:18;9.10;90.60
7658;DHT22;8462;53.156;8.220;2022-11-13T16:36:23;9.10;90.70
7658;DHT22;8462;53.156;8.220;2022-11-13T16:39:29;8.90;90.80
7658;DHT22;8462;53.156;8.220;2022-11-13T16:42:34;8.90;91.00
7658;DHT22;8462;53.156;8.220;2022-11-13T16:45:40;8.80;91.30
7658;DHT22;8462;53.156;8.220;2022-11-13T16:48:45;8.90;91.30
7658;DHT22;8462;53.156;8.220;2022-11-13T16:51:49;8.90;91.10
7658;DHT22;8462;53.156;8.220;2022-11-13T16:54:55;8.90;91.00
7658;DHT22;8462;53.156;8.220;2022-11-13T16:58:00;9.00;91.20
7658;DHT22;8462;53.156;8.220;2022-11-13T17:01:11;9.00;91.10
7658;DHT22;8462;53.156;8.220;2022-11-13T17:04:17;9.00;91.10
7658;DHT22;8462;53.156;8.220;2022-11-13T17:07:22;9.00;91.00
7658;DHT22;8462;53.156;8.220;2022-11-13T17:10:26;9.00;90.70
7658;DHT22;8462;53.156;8.220;2022-11-13T17:13:34;8.90;90.70
7658;DHT22;8462;53.156;8.220;2022-11-13T17:16:39;8.90;90.70
7658;DHT22;8462;53.156;8.220;2022-11-13T17:19:44;8.80;90.90
7658;DHT22;8462;53.156;8.220;2022-11-13T17:22:48;8.80;91.00
7658;DHT22;8462;53.156;8.220;2022-11-13T17:25:53;8.80;91.00
7658;DHT22;8462;53.156;8.220;2022-11-13T17:28:57;8.80;91.00
7658;DHT22;8462;53.156;8.220;2022-11-13T17:32:05;8.80;91.20
7658;DHT22;8462;53.156;8.220;2022-11-13T17:35:11;8.80;91.30
7658;DHT22;8462;53.156;8.220;2022-11-13T17:38:16;8.80;91.40
7658;DHT22;8462;53.156;8.220;2022-11-13T17:41:20;8.80;91.60
7658;DHT22;8462;53.156;8.220;2022-11-13T17:44:25;8.70;91.80
7658;DHT22;8462;53.156;8.220;2022-11-13T17:47:32;8.70;91.80
7658;DHT22;8462;53.156;8.220;2022-11-13T17:50:36;8.70;92.50
7658;DHT22;8462;53.156;8.220;2022-11-13T17:53:41;8.70;92.00
7658;DHT22;8462;53.156;8.220;2022-11-13T17:56:46;8.70;92.10
7658;DHT22;8462;53.156;8.220;2022-11-13T17:59:50;8.70;92.20
7658;DHT22;8462;53.156;8.220;2022-11-13T18:02:57;8.70;92.20
7658;DHT22;8462;53.156;8.220;2022-11-13T18:06:07;8.70;92.40
7658;DHT22;8462;53.156;8.220;2022-11-13T18:09:11;8.70;92.60
7658;DHT22;8462;53.156;8.220;2022-11-13T18:12:15;8.70;92.60
7658;DHT22;8462;53.156;8.220;2022-11-13T18:15:20;8.70;92.60
7658;DHT22;8462;53.156;8.220;2022-11-13T18:18:26;8.80;92.70
7658;DHT22;8462;53.156;8.220;2022-11-13T18:21:32;8.80;92.50
7658;DHT22;8462;53.156;8.220;2022-11-13T18:24:37;8.90;92.70
7658;DHT22;8462;53.156;8.220;2022-11-13T18:27:42;8.90;92.50
7658;DHT22;8462;53.156;8.220;2022-11-13T18:30:47;8.90;92.50
7658;DHT22;8462;53.156;8.220;2022-11-13T18:33:53;8.90;92.60
7658;DHT22;8462;53.156;8.220;2022-11-13T18:37:00;8.90;92.70
7658;DHT22;8462;53.156;8.220;2022-11-13T18:40:05;8.90;92.70
7658;DHT22;8462;53.156;8.220;2022-11-13T18:43:10;9.00;92.70
7658;DHT22;8462;53.156;8.220;2022-11-13T18:46:17;9.00;92.60
7658;DHT22;8462;53.156;8.220;2022-11-13T18:49:22;9.10;92.70
7658;DHT22;8462;53.156;8.220;2022-11-13T18:52:27;9.10;92.50
7658;DHT22;8462;53.156;8.220;2022-11-13T18:55:33;9.20;92.60
7658;DHT22;8462;53.156;8.220;2022-11-13T18:58:38;9.10;92.50
7658;DHT22;8462;53.156;8.220;2022-11-13T19:01:43;9.20;92.60
7658;DHT22;8462;53.156;8.220;2022-11-13T19:04:49;9.20;92.60
7658;DHT22;8462;53.156;8.220;2022-11-13T19:07:53;9.30;92.50
7658;DHT22;8462;53.156;8.220;2022-11-13T19:11:02;9.30;92.40
7658;DHT22;8462;53.156;8.220;2022-11-13T19:14:12;9.40;92.20
7658;DHT22;8462;53.156;8.220;2022-11-13T19:17:17;9.40;92.30
7658;DHT22;8462;53.156;8.220;2022-11-13T19:20:24;9.40;92.30
7658;DHT22;8462;53.156;8.220;2022-11-13T19:23:28;9.50;92.20
7658;DHT22;8462;53.156;8.220;2022-11-13T19:26:32;9.40;92.10